sensor_id;sensor_type;location;lat;lon;timestamp;temperature;humidity
2907;DHT22;1463;51.070;16.998;2023-03-19T00:00:44;9.30;66.60
2907;DHT22;1463;51.070;16.998;2023-03-19T00:03:11;9.30;66.70
2907;DHT22;1463;51.070;16.998;2023-03-19T00:05:40;9.30;66.80
2907;DHT22;1463;51.070;16.998;2023-03-19T00:08:10;9.30;67.10
2907;DHT22;1463;51.070;16.998;2023-03-19T00:10:38;9.30;66.90
2907;DHT22;1463;51.070;16.998;2023-03-19T00:13:05;9.30;66.90
2907;DHT22;1463;51.070;16.998;2023-03-19T00:15:34;9.40;67.80
2907;DHT22;1463;51.070;16.998;2023-03-19T00:18:02;9.40;67.50
2907;DHT22;1463;51.070;16.998;2023-03-19T00:20:31;9.30;67.40
2907;DHT22;1463;51.070;16.998;2023-03-19T00:23:00;9.30;67.70
2907;DHT22;1463;51.070;16.998;2023-03-19T00:25:27;9.30;68.10
2907;DHT22;1463;51.070;16.998;2023-03-19T00:27:54;9.30;68.70
2907;DHT22;1463;51.070;16.998;2023-03-19T00:30:22;9.20;69.20
2907;DHT22;1463;51.070;16.998;2023-03-19T00:32:50;9.10;69.50
2907;DHT22;1463;51.070;16.998;2023-03-19T00:35:17;9.00;70.00
2907;DHT22;1463;51.070;16.998;2023-03-19T00:37:45;8.90;70.80
2907;DHT22;1463;51.070;16.998;2023-03-19T00:40:14;8.70;70.50
2907;DHT22;1463;51.070;16.998;2023-03-19T00:42:42;8.60;71.30
2907;DHT22;1463;51.070;16.998;2023-03-19T00:45:10;8.50;71.70
2907;DHT22;1463;51.070;16.998;2023-03-19T00:47:38;8.50;72.40
2907;DHT22;1463;51.070;16.998;2023-03-19T00:50:08;8.50;72.30
2907;DHT22;1463;51.070;16.998;2023-03-19T00:52:35;8.50;72.80
2907;DHT22;1463;51.070;16.998;2023-03-19T00:55:03;8.50;72.70
2907;DHT22;1463;51.070;16.998;2023-03-19T00:57:33;8.50;73.30
2907;DHT22;1463;51.070;16.998;2023-03-19T01:00:04;8.40;73.40
2907;DHT22;1463;51.070;16.998;2023-03-19T01:02:31;8.40;73.30
2907;DHT22;1463;51.070;16.998;2023-03-19T01:04:59;8.30;73.30
2907;DHT22;1463;51.070;16.998;2023-03-19T01:07:26;8.20;73.50
2907;DHT22;1463;51.070;16.998;2023-03-19T01:09:54;8.20;73.80
2907;DHT22;1463;51.070;16.998;2023-03-19T01:12:21;8.20;73.90
2907;DHT22;1463;51.070;16.998;2023-03-19T01:14:50;8.20;74.20
2907;DHT22;1463;51.070;16.998;2023-03-19T01:17:17;8.10;74.20
2907;DHT22;1463;51.070;16.998;2023-03-19T01:19:45;8.10;74.20
2907;DHT22;1463;51.070;16.998;2023-03-19T01:22:12;8.10;74.50
2907;DHT22;1463;51.070;16.998;2023-03-19T01:24:42;8.00;74.70
2907;DHT22;1463;51.070;16.998;2023-03-19T01:27:10;7.90;74.90
2907;DHT22;1463;51.070;16.998;2023-03-19T01:29:38;7.90;75.10
2907;DHT22;1463;51.070;16.998;2023-03-19T01:32:09;7.90;75.40
2907;DHT22;1463;51.070;16.998;2023-03-19T01:34:37;8.10;75.20
2907;DHT22;1463;51.070;16.998;2023-03-19T01:37:04;8.10;74.90
2907;DHT22;1463;51.070;16.998;2023-03-19T01:39:32;8.00;75.40
2907;DHT22;1463;51.070;16.998;2023-03-19T01:42:01;7.90;76.20
2907;DHT22;1463;51.070;16.998;2023-03-19T01:44:33;7.90;76.30
2907;DHT22;1463;51.070;16.998;2023-03-19T01:47:03;7.90;76.50
2907;DHT22;1463;51.070;16.998;2023-03-19T01:49:33;7.90;76.40
2907;DHT22;1463;51.070;16.998;2023-03-19T01:52:03;7.80;76.00
2907;DHT22;1463;51.070;16.998;2023-03-19T01:54:34;7.80;76.40
2907;DHT22;1463;51.070;16.998;2023-03-19T01:57:06;7.80;76.40
2907;DHT22;1463;51.070;16.998;2023-03-19T01:59:36;7.80;76.60
2907;DHT22;1463;51.070;16.998;2023-03-19T02:02:08;7.80;76.60
2907;DHT22;1463;51.070;16.998;2023-03-19T02:04:41;7.80;76.80
2907;DHT22;1463;51.070;16.998;2023-03-19T02:07:10;7.80;77.00
2907;DHT22;1463;51.070;16.998;2023-03-19T02:09:39;7.80;77.50
2907;DHT22;1463;51.070;16.998;2023-03-19T02:12:08;7.70;77.20
2907;DHT22;1463;51.070;16.998;2023-03-19T02:14:36;7.60;77.30
2907;DHT22;1463;51.070;16.998;2023-03-19T02:17:03;7.50;77.50
2907;DHT22;1463;51.070;16.998;2023-03-19T02:19:36;7.50;78.20
2907;DHT22;1463;51.070;16.998;2023-03-19T02:22:08;7.50;78.30
2907;DHT22;1463;51.070;16.998;2023-03-19T02:24:40;7.60;78.40
2907;DHT22;1463;51.070;16.998;2023-03-19T02:27:12;7.50;78.40
2907;DHT22;1463;51.070;16.998;2023-03-19T02:29:40;7.50;78.80
2907;DHT22;1463;51.070;16.998;2023-03-19T02:32:07;7.40;78.80
2907;DHT22;1463;51.070;16.998;2023-03-19T02:34:38;7.50;79.30
2907;DHT22;1463;51.070;16.998;2023-03-19T02:37:13;7.50;79.00
2907;DHT22;1463;51.070;16.998;2023-03-19T02:39:50;7.50;79.20
2907;DHT22;1463;51.070;16.998;2023-03-19T02:42:21;7.40;79.60
2907;DHT22;1463;51.070;16.998;2023-03-19T02:44:50;7.40;79.90
2907;DHT22;1463;51.070;16.998;2023-03-19T02:47:18;7.40;79.70
2907;DHT22;1463;51.070;16.998;2023-03-19T02:49:45;7.40;80.10
2907;DHT22;1463;51.070;16.998;2023-03-19T02:52:12;7.40;80.90
2907;DHT22;1463;51.070;16.998;2023-03-19T02:54:40;7.40;80.30
2907;DHT22;1463;51.070;16.998;2023-03-19T02:57:08;7.30;80.80
2907;DHT22;1463;51.070;16.998;2023-03-19T02:59:37;7.40;80.70
2907;DHT22;1463;51.070;16.998;2023-03-19T03:02:06;7.40;80.50
2907;DHT22;1463;51.070;16.998;2023-03-19T03:04:35;7.50;80.90
2907;DHT22;1463;51.070;16.998;2023-03-19T03:07:03;7.40;81.30
2907;DHT22;1463;51.070;16.998;2023-03-19T03:09:31;7.40;81.30
2907;DHT22;1463;51.070;16.998;2023-03-19T03:11:58;7.30;81.70
2907;DHT22;1463;51.070;16.998;2023-03-19T03:14:26;7.30;82.20
2907;DHT22;1463;51.070;16.998;2023-03-19T03:16:55;7.20;82.60
2907;DHT22;1463;51.070;16.998;2023-03-19T03:19:23;7.30;83.20
2907;DHT22;1463;51.070;16.998;2023-03-19T03:21:50;7.30;83.00
2907;DHT22;1463;51.070;16.998;2023-03-19T03:24:18;7.30;83.40
2907;DHT22;1463;51.070;16.998;2023-03-19T03:26:46;7.30;83.60
2907;DHT22;1463;51.070;16.998;2023-03-19T03:29:14;7.30;83.50
2907;DHT22;1463;51.070;16.998;2023-03-19T03:31:41;7.30;83.40
2907;DHT22;1463;51.070;16.998;2023-03-19T03:34:10;7.30;83.80
2907;DHT22;1463;51.070;16.998;2023-03-19T03:36:38;7.30;84.10
2907;DHT22;1463;51.070;16.998;2023-03-19T03:39:08;7.30;84.10
2907;DHT22;1463;51.070;16.998;2023-03-19T03:41:35;7.30;83.60
2907;DHT22;1463;51.070;16.998;2023-03-19T03:44:03;7.30;84.10
2907;DHT22;1463;51.070;16.998;2023-03-19T03:46:31;7.20;84.30
2907;DHT22;1463;51.070;16.998;2023-03-19T03:48:58;7.10;84.50
2907;DHT22;1463;51.070;16.998;2023-03-19T03:51:27;7.10;85.10
2907;DHT22;1463;51.070;16.998;2023-03-19T03:53:54;7.10;84.90
2907;DHT22;1463;51.070;16.998;2023-03-19T03:56:22;7.20;84.70
2907;DHT22;1463;51.070;16.998;2023-03-19T03:58:49;7.10;85.00
2907;DHT22;1463;51.070;16.998;2023-03-19T04:01:17;7.10;84.90
2907;DHT22;1463;51.070;16.998;2023-03-19T04:03:45;7.10;85.90
2907;DHT22;1463;51.070;16.998;2023-03-19T04:06:13;7.10;86.40
2907;DHT22;1463;51.070;16.998;2023-03-19T04:08:43;7.10;86.30
2907;DHT22;1463;51.070;16.998;2023-03-19T04:11:10;7.00;86.40
2907;DHT22;1463;51.070;16.998;2023-03-19T04:13:38;7.00;87.00
2907;DHT22;1463;51.070;16.998;2023-03-19T04:16:07;7.00;87.00
2907;DHT22;1463;51.070;16.998;2023-03-19T04:18:35;7.00;87.70
2907;DHT22;1463;51.070;16.998;2023-03-19T04:21:03;7.00;87.70
2907;DHT22;1463;51.070;16.998;2023-03-19T04:23:31;7.00;88.10
2907;DHT22;1463;51.070;16.998;2023-03-19T04:26:04;7.00;87.60
2907;DHT22;1463;51.070;16.998;2023-03-19T04:28:33;6.90;87.90
2907;DHT22;1463;51.070;16.998;2023-03-19T04:31:02;7.00;88.20
2907;DHT22;1463;51.070;16.998;2023-03-19T04:33:30;7.00;87.90
2907;DHT22;1463;51.070;16.998;2023-03-19T04:35:58;7.10;88.00
2907;DHT22;1463;51.070;16.998;2023-03-19T04:38:26;7.10;87.50
2907;DHT22;1463;51.070;16.998;2023-03-19T04:40:54;7.20;86.40
2907;DHT22;1463;51.070;16.998;2023-03-19T04:43:25;7.30;86.00
2907;DHT22;1463;51.070;16.998;2023-03-19T04:45:53;7.40;85.80
2907;DHT22;1463;51.070;16.998;2023-03-19T04:48:20;7.40;85.70
2907;DHT22;1463;51.070;16.998;2023-03-19T04:50:48;7.40;85.50
2907;DHT22;1463;51.070;16.998;2023-03-19T04:53:18;7.30;84.90
2907;DHT22;1463;51.070;16.998;2023-03-19T04:55:46;7.30;85.60
2907;DHT22;1463;51.070;16.998;2023-03-19T04:58:15;7.10;85.80
2907;DHT22;1463;51.070;16.998;2023-03-19T05:00:44;7.00;87.40
2907;DHT22;1463;51.070;16.998;2023-03-19T05:03:12;6.70;89.60
2907;DHT22;1463;51.070;16.998;2023-03-19T05:05:40;6.80;90.20
2907;DHT22;1463;51.070;16.998;2023-03-19T05:08:08;6.80;90.00
2907;DHT22;1463;51.070;16.998;2023-03-19T05:10:36;6.90;91.40
2907;DHT22;1463;51.070;16.998;2023-03-19T05:13:04;7.10;91.40
2907;DHT22;1463;51.070;16.998;2023-03-19T05:15:35;7.10;90.30
2907;DHT22;1463;51.070;16.998;2023-03-19T05:18:04;7.00;90.40
2907;DHT22;1463;51.070;16.998;2023-03-19T05:20:35;6.90;90.80
2907;DHT22;1463;51.070;16.998;2023-03-19T05:23:03;6.90;91.40
2907;DHT22;1463;51.070;16.998;2023-03-19T05:25:32;6.80;91.40
2907;DHT22;1463;51.070;16.998;2023-03-19T05:28:00;6.90;91.80
2907;DHT22;1463;51.070;16.998;2023-03-19T05:30:27;7.10;91.70
2907;DHT22;1463;51.070;16.998;2023-03-19T05:32:55;7.20;91.60
2907;DHT22;1463;51.070;16.998;2023-03-19T05:35:24;7.20;91.10
2907;DHT22;1463;51.070;16.998;2023-03-19T05:37:52;7.20;91.00
2907;DHT22;1463;51.070;16.998;2023-03-19T05:40:20;7.20;91.00
2907;DHT22;1463;51.070;16.998;2023-03-19T05:42:48;7.10;91.20
2907;DHT22;1463;51.070;16.998;2023-03-19T05:45:15;7.00;91.40
2907;DHT22;1463;51.070;16.998;2023-03-19T05:47:49;7.20;91.40
2907;DHT22;1463;51.070;16.998;2023-03-19T05:50:17;7.20;91.40
2907;DHT22;1463;51.070;16.998;2023-03-19T05:52:45;7.30;91.10
2907;DHT22;1463;51.070;16.998;2023-03-19T05:55:13;7.50;90.60
2907;DHT22;1463;51.070;16.998;2023-03-19T05:57:41;7.50;90.40
2907;DHT22;1463;51.070;16.998;2023-03-19T06:00:09;7.50;90.10
2907;DHT22;1463;51.070;16.998;2023-03-19T06:02:37;7.50;89.80
2907;DHT22;1463;51.070;16.998;2023-03-19T06:05:05;7.40;90.10
2907;DHT22;1463;51.070;16.998;2023-03-19T06:07:33;7.40;90.10
2907;DHT22;1463;51.070;16.998;2023-03-19T06:10:03;7.30;90.30
2907;DHT22;1463;51.070;16.998;2023-03-19T06:12:31;7.20;90.80
2907;DHT22;1463;51.070;16.998;2023-03-19T06:14:58;7.20;91.00
2907;DHT22;1463;51.070;16.998;2023-03-19T06:17:26;7.00;91.40
2907;DHT22;1463;51.070;16.998;2023-03-19T06:19:53;7.00;92.00
2907;DHT22;1463;51.070;16.998;2023-03-19T06:22:21;7.10;92.30
2907;DHT22;1463;51.070;16.998;2023-03-19T06:24:50;7.20;92.20
2907;DHT22;1463;51.070;16.998;2023-03-19T06:27:19;7.30;91.90
2907;DHT22;1463;51.070;16.998;2023-03-19T06:29:46;7.50;91.70
2907;DHT22;1463;51.070;16.998;2023-03-19T06:32:14;7.60;91.60
2907;DHT22;1463;51.070;16.998;2023-03-19T06:34:41;7.70;91.50
2907;DHT22;1463;51.070;16.998;2023-03-19T06:37:09;7.70;91.50
2907;DHT22;1463;51.070;16.998;2023-03-19T06:39:36;7.90;91.90
2907;DHT22;1463;51.070;16.998;2023-03-19T06:42:04;7.80;91.50
2907;DHT22;1463;51.070;16.998;2023-03-19T06:44:35;7.90;91.50
2907;DHT22;1463;51.070;16.998;2023-03-19T06:47:03;8.10;91.60
2907;DHT22;1463;51.070;16.998;2023-03-19T06:49:31;8.20;91.40
2907;DHT22;1463;51.070;16.998;2023-03-19T06:51:59;8.20;91.40
2907;DHT22;1463;51.070;16.998;2023-03-19T06:54:26;8.30;91.30
2907;DHT22;1463;51.070;16.998;2023-03-19T06:56:54;8.40;91.30
2907;DHT22;1463;51.070;16.998;2023-03-19T06:59:21;8.60;90.90
2907;DHT22;1463;51.070;16.998;2023-03-19T07:01:51;8.50;90.60
2907;DHT22;1463;51.070;16.998;2023-03-19T07:04:19;8.60;90.50
2907;DHT22;1463;51.070;16.998;2023-03-19T07:06:48;8.60;90.90
2907;DHT22;1463;51.070;16.998;2023-03-19T07:09:18;8.50;91.00
2907;DHT22;1463;51.070;16.998;2023-03-19T07:11:45;8.80;91.10
2907;DHT22;1463;51.070;16.998;2023-03-19T07:14:13;9.10;90.30
2907;DHT22;1463;51.070;16.998;2023-03-19T07:16:40;9.20;90.40
2907;DHT22;1463;51.070;16.998;2023-03-19T07:19:09;9.00;90.30
2907;DHT22;1463;51.070;16.998;2023-03-19T07:21:37;9.00;90.80
2907;DHT22;1463;51.070;16.998;2023-03-19T07:24:04;9.00;91.30
2907;DHT22;1463;51.070;16.998;2023-03-19T07:26:33;9.10;91.30
2907;DHT22;1463;51.070;16.998;2023-03-19T07:29:01;9.10;91.30
2907;DHT22;1463;51.070;16.998;2023-03-19T07:31:28;9.20;91.20
2907;DHT22;1463;51.070;16.998;2023-03-19T07:33:56;9.30;91.20
2907;DHT22;1463;51.070;16.998;2023-03-19T07:36:25;9.30;91.50
2907;DHT22;1463;51.070;16.998;2023-03-19T07:38:54;9.50;91.50
2907;DHT22;1463;51.070;16.998;2023-03-19T07:41:22;9.70;91.10
2907;DHT22;1463;51.070;16.998;2023-03-19T07:43:49;9.80;90.90
2907;DHT22;1463;51.070;16.998;2023-03-19T07:46:17;10.00;90.60
2907;DHT22;1463;51.070;16.998;2023-03-19T07:48:44;10.30;90.70
2907;DHT22;1463;51.070;16.998;2023-03-19T07:51:12;10.40;87.70
2907;DHT22;1463;51.070;16.998;2023-03-19T07:53:40;10.60;87.90
2907;DHT22;1463;51.070;16.998;2023-03-19T07:56:10;10.70;87.20
2907;DHT22;1463;51.070;16.998;2023-03-19T07:58:38;10.80;86.20
2907;DHT22;1463;51.070;16.998;2023-03-19T08:01:05;10.80;87.50
2907;DHT22;1463;51.070;16.998;2023-03-19T08:03:33;10.90;87.00
2907;DHT22;1463;51.070;16.998;2023-03-19T08:06:00;11.00;86.30
2907;DHT22;1463;51.070;16.998;2023-03-19T08:08:28;10.90;86.70
2907;DHT22;1463;51.070;16.998;2023-03-19T08:10:57;11.00;87.20
2907;DHT22;1463;51.070;16.998;2023-03-19T08:13:24;10.90;87.90
2907;DHT22;1463;51.070;16.998;2023-03-19T08:15:52;11.00;88.40
2907;DHT22;1463;51.070;16.998;2023-03-19T08:18:21;11.10;88.80
2907;DHT22;1463;51.070;16.998;2023-03-19T08:20:48;11.30;88.80
2907;DHT22;1463;51.070;16.998;2023-03-19T08:23:19;11.80;88.40
2907;DHT22;1463;51.070;16.998;2023-03-19T08:25:47;12.40;86.90
2907;DHT22;1463;51.070;16.998;2023-03-19T08:28:18;13.20;84.60
2907;DHT22;1463;51.070;16.998;2023-03-19T08:30:45;13.60;80.10
2907;DHT22;1463;51.070;16.998;2023-03-19T08:33:12;13.70;79.30
2907;DHT22;1463;51.070;16.998;2023-03-19T08:35:40;14.20;79.30
2907;DHT22;1463;51.070;16.998;2023-03-19T08:38:07;14.60;77.00
2907;DHT22;1463;51.070;16.998;2023-03-19T08:40:38;14.70;75.80
2907;DHT22;1463;51.070;16.998;2023-03-19T08:43:05;14.20;74.20
2907;DHT22;1463;51.070;16.998;2023-03-19T08:45:34;13.70;74.40
2907;DHT22;1463;51.070;16.998;2023-03-19T08:48:01;13.40;75.00
2907;DHT22;1463;51.070;16.998;2023-03-19T08:50:29;13.30;75.70
2907;DHT22;1463;51.070;16.998;2023-03-19T08:52:57;13.50;75.60
2907;DHT22;1463;51.070;16.998;2023-03-19T08:55:24;13.50;72.50
2907;DHT22;1463;51.070;16.998;2023-03-19T08:57:53;13.40;69.80
2907;DHT22;1463;51.070;16.998;2023-03-19T09:00:21;13.10;69.70
2907;DHT22;1463;51.070;16.998;2023-03-19T09:02:50;13.30;67.70
2907;DHT22;1463;51.070;16.998;2023-03-19T09:05:17;13.20;67.60
2907;DHT22;1463;51.070;16.998;2023-03-19T09:07:47;13.10;68.90
2907;DHT22;1463;51.070;16.998;2023-03-19T09:10:15;13.20;68.70
2907;DHT22;1463;51.070;16.998;2023-03-19T09:12:44;13.30;69.90
2907;DHT22;1463;51.070;16.998;2023-03-19T09:15:12;13.10;71.30
2907;DHT22;1463;51.070;16.998;2023-03-19T09:17:39;13.10;72.00
2907;DHT22;1463;51.070;16.998;2023-03-19T09:20:09;13.30;72.60
2907;DHT22;1463;51.070;16.998;2023-03-19T09:22:37;13.20;73.30
2907;DHT22;1463;51.070;16.998;2023-03-19T09:25:06;13.30;74.00
2907;DHT22;1463;51.070;16.998;2023-03-19T09:27:33;13.90;73.40
2907;DHT22;1463;51.070;16.998;2023-03-19T09:30:01;14.40;71.40
2907;DHT22;1463;51.070;16.998;2023-03-19T09:32:28;14.70;70.40
2907;DHT22;1463;51.070;16.998;2023-03-19T09:34:56;15.10;69.60
2907;DHT22;1463;51.070;16.998;2023-03-19T09:37:25;15.20;68.20
2907;DHT22;1463;51.070;16.998;2023-03-19T09:39:52;15.10;67.50
2907;DHT22;1463;51.070;16.998;2023-03-19T09:42:30;14.80;67.90
2907;DHT22;1463;51.070;16.998;2023-03-19T09:45:00;14.50;68.60
2907;DHT22;1463;51.070;16.998;2023-03-19T09:47:29;14.30;68.60
2907;DHT22;1463;51.070;16.998;2023-03-19T09:49:59;14.10;68.80
2907;DHT22;1463;51.070;16.998;2023-03-19T09:52:35;14.00;68.50
2907;DHT22;1463;51.070;16.998;2023-03-19T09:55:13;14.10;68.30
2907;DHT22;1463;51.070;16.998;2023-03-19T09:57:42;14.20;67.90
2907;DHT22;1463;51.070;16.998;2023-03-19T10:00:19;14.30;68.10
2907;DHT22;1463;51.070;16.998;2023-03-19T10:02:55;14.40;68.40
2907;DHT22;1463;51.070;16.998;2023-03-19T10:05:31;14.40;68.20
2907;DHT22;1463;51.070;16.998;2023-03-19T10:08:30;14.40;68.20
2907;DHT22;1463;51.070;16.998;2023-03-19T10:11:16;14.40;68.80
2907;DHT22;1463;51.070;16.998;2023-03-19T10:13:58;14.40;67.80
2907;DHT22;1463;51.070;16.998;2023-03-19T10:16:29;14.40;67.60
2907;DHT22;1463;51.070;16.998;2023-03-19T10:19:01;14.50;66.60
2907;DHT22;1463;51.070;16.998;2023-03-19T10:21:34;14.60;67.10
2907;DHT22;1463;51.070;16.998;2023-03-19T10:24:11;14.60;64.60
2907;DHT22;1463;51.070;16.998;2023-03-19T10:26:40;14.60;64.10
2907;DHT22;1463;51.070;16.998;2023-03-19T10:29:10;14.50;64.70
2907;DHT22;1463;51.070;16.998;2023-03-19T10:31:48;14.50;65.50
2907;DHT22;1463;51.070;16.998;2023-03-19T10:34:28;14.50;66.20
2907;DHT22;1463;51.070;16.998;2023-03-19T10:36:59;14.60;65.60
2907;DHT22;1463;51.070;16.998;2023-03-19T10:39:31;14.60;67.20
2907;DHT22;1463;51.070;16.998;2023-03-19T10:42:09;15.00;64.90
2907;DHT22;1463;51.070;16.998;2023-03-19T10:44:47;15.20;64.50
2907;DHT22;1463;51.070;16.998;2023-03-19T10:47:16;15.40;64.10
2907;DHT22;1463;51.070;16.998;2023-03-19T10:49:45;15.60;63.70
2907;DHT22;1463;51.070;16.998;2023-03-19T10:52:20;15.70;64.30
2907;DHT22;1463;51.070;16.998;2023-03-19T10:54:53;15.90;64.00
2907;DHT22;1463;51.070;16.998;2023-03-19T10:57:25;16.00;64.60
2907;DHT22;1463;51.070;16.998;2023-03-19T10:59:53;16.20;64.30
2907;DHT22;1463;51.070;16.998;2023-03-19T11:02:24;16.40;63.00
2907;DHT22;1463;51.070;16.998;2023-03-19T11:05:06;16.70;62.70
2907;DHT22;1463;51.070;16.998;2023-03-19T11:07:36;17.00;61.40
2907;DHT22;1463;51.070;16.998;2023-03-19T11:10:12;17.00;60.70
2907;DHT22;1463;51.070;16.998;2023-03-19T11:12:40;17.00;60.30
2907;DHT22;1463;51.070;16.998;2023-03-19T11:15:17;16.90;60.40
2907;DHT22;1463;51.070;16.998;2023-03-19T11:17:48;17.10;59.40
2907;DHT22;1463;51.070;16.998;2023-03-19T11:20:22;17.10;58.70
2907;DHT22;1463;51.070;16.998;2023-03-19T11:22:51;16.90;58.70
2907;DHT22;1463;51.070;16.998;2023-03-19T11:25:26;16.60;59.30
2907;DHT22;1463;51.070;16.998;2023-03-19T11:27:58;16.50;59.10
2907;DHT22;1463;51.070;16.998;2023-03-19T11:30:32;16.40;59.60
2907;DHT22;1463;51.070;16.998;2023-03-19T11:33:24;16.30;60.00
2907;DHT22;1463;51.070;16.998;2023-03-19T11:36:03;16.50;60.90
2907;DHT22;1463;51.070;16.998;2023-03-19T11:38:39;16.80;60.80
2907;DHT22;1463;51.070;16.998;2023-03-19T11:41:15;17.20;60.10
2907;DHT22;1463;51.070;16.998;2023-03-19T11:43:53;17.50;59.90
2907;DHT22;1463;51.070;16.998;2023-03-19T11:46:35;17.60;59.00
2907;DHT22;1463;51.070;16.998;2023-03-19T11:49:25;17.70;58.90
2907;DHT22;1463;51.070;16.998;2023-03-19T11:52:00;17.60;58.70
2907;DHT22;1463;51.070;16.998;2023-03-19T11:54:35;17.60;57.90
2907;DHT22;1463;51.070;16.998;2023-03-19T11:57:09;17.50;58.20
2907;DHT22;1463;51.070;16.998;2023-03-19T11:59:49;17.50;58.50
2907;DHT22;1463;51.070;16.998;2023-03-19T12:02:44;17.50;58.90
2907;DHT22;1463;51.070;16.998;2023-03-19T12:05:20;17.80;57.60
2907;DHT22;1463;51.070;16.998;2023-03-19T12:08:08;17.90;56.90
2907;DHT22;1463;51.070;16.998;2023-03-19T12:10:44;18.00;57.00
2907;DHT22;1463;51.070;16.998;2023-03-19T12:13:34;18.00;56.40
2907;DHT22;1463;51.070;16.998;2023-03-19T12:16:13;17.80;56.70
2907;DHT22;1463;51.070;16.998;2023-03-19T12:18:52;17.80;58.30
2907;DHT22;1463;51.070;16.998;2023-03-19T12:21:29;17.70;60.40
2907;DHT22;1463;51.070;16.998;2023-03-19T12:24:11;17.60;62.10
2907;DHT22;1463;51.070;16.998;2023-03-19T12:26:49;17.80;63.10
2907;DHT22;1463;51.070;16.998;2023-03-19T12:29:26;17.70;62.90
2907;DHT22;1463;51.070;16.998;2023-03-19T12:32:17;17.60;63.40
2907;DHT22;1463;51.070;16.998;2023-03-19T12:34:47;17.60;64.00
2907;DHT22;1463;51.070;16.998;2023-03-19T12:37:20;17.60;63.90
2907;DHT22;1463;51.070;16.998;2023-03-19T12:40:05;17.60;64.10
2907;DHT22;1463;51.070;16.998;2023-03-19T12:42:40;17.50;62.80
2907;DHT22;1463;51.070;16.998;2023-03-19T12:45:28;17.40;63.80
2907;DHT22;1463;51.070;16.998;2023-03-19T12:48:01;17.50;64.90
2907;DHT22;1463;51.070;16.998;2023-03-19T12:50:35;17.60;63.60
2907;DHT22;1463;51.070;16.998;2023-03-19T12:53:08;17.50;62.40
2907;DHT22;1463;51.070;16.998;2023-03-19T12:55:40;17.50;63.00
2907;DHT22;1463;51.070;16.998;2023-03-19T12:58:14;17.40;63.00
2907;DHT22;1463;51.070;16.998;2023-03-19T13:00:49;17.30;63.50
2907;DHT22;1463;51.070;16.998;2023-03-19T13:03:22;17.30;63.70
2907;DHT22;1463;51.070;16.998;2023-03-19T13:05:57;17.40;65.30
2907;DHT22;1463;51.070;16.998;2023-03-19T13:08:30;17.60;65.30
2907;DHT22;1463;51.070;16.998;2023-03-19T13:11:04;17.70;62.80
2907;DHT22;1463;51.070;16.998;2023-03-19T13:13:39;17.70;62.90
2907;DHT22;1463;51.070;16.998;2023-03-19T13:16:22;18.00;62.70
2907;DHT22;1463;51.070;16.998;2023-03-19T13:19:00;18.00;63.40
2907;DHT22;1463;51.070;16.998;2023-03-19T13:21:32;18.10;61.80
2907;DHT22;1463;51.070;16.998;2023-03-19T13:24:05;18.00;61.70
2907;DHT22;1463;51.070;16.998;2023-03-19T13:26:36;18.00;61.40
2907;DHT22;1463;51.070;16.998;2023-03-19T13:29:14;18.00;61.20
2907;DHT22;1463;51.070;16.998;2023-03-19T13:31:44;18.00;60.30
2907;DHT22;1463;51.070;16.998;2023-03-19T13:34:23;18.10;60.50
2907;DHT22;1463;51.070;16.998;2023-03-19T13:36:54;18.00;59.60
2907;DHT22;1463;51.070;16.998;2023-03-19T13:39:31;17.90;60.80
2907;DHT22;1463;51.070;16.998;2023-03-19T13:42:34;18.30;59.80
2907;DHT22;1463;51.070;16.998;2023-03-19T13:47:52;18.10;58.40
2907;DHT22;1463;51.070;16.998;2023-03-19T13:50:24;18.20;57.90
2907;DHT22;1463;51.070;16.998;2023-03-19T13:52:54;18.00;58.10
2907;DHT22;1463;51.070;16.998;2023-03-19T13:55:58;17.80;58.60
2907;DHT22;1463;51.070;16.998;2023-03-19T13:58:26;18.00;58.00
2907;DHT22;1463;51.070;16.998;2023-03-19T14:03:57;18.30;57.50
2907;DHT22;1463;51.070;16.998;2023-03-19T14:06:33;18.00;58.40
2907;DHT22;1463;51.070;16.998;2023-03-19T14:09:03;17.90;56.80
2907;DHT22;1463;51.070;16.998;2023-03-19T14:11:33;17.90;57.50
2907;DHT22;1463;51.070;16.998;2023-03-19T14:14:04;18.00;57.40
2907;DHT22;1463;51.070;16.998;2023-03-19T14:16:34;18.00;57.50
2907;DHT22;1463;51.070;16.998;2023-03-19T14:19:10;18.00;57.10
2907;DHT22;1463;51.070;16.998;2023-03-19T14:21:42;17.90;56.10
2907;DHT22;1463;51.070;16.998;2023-03-19T14:24:29;17.90;56.20
2907;DHT22;1463;51.070;16.998;2023-03-19T14:27:03;18.00;56.40
2907;DHT22;1463;51.070;16.998;2023-03-19T14:29:41;17.80;55.90
2907;DHT22;1463;51.070;16.998;2023-03-19T14:32:15;17.80;55.60
2907;DHT22;1463;51.070;16.998;2023-03-19T14:34:46;17.70;55.00
2907;DHT22;1463;51.070;16.998;2023-03-19T14:37:21;17.60;55.70
2907;DHT22;1463;51.070;16.998;2023-03-19T14:39:53;17.50;55.90
2907;DHT22;1463;51.070;16.998;2023-03-19T14:42:29;17.50;55.80
2907;DHT22;1463;51.070;16.998;2023-03-19T14:45:45;17.40;55.70
2907;DHT22;1463;51.070;16.998;2023-03-19T14:48:23;17.40;55.70
2907;DHT22;1463;51.070;16.998;2023-03-19T14:51:25;17.30;56.30
2907;DHT22;1463;51.070;16.998;2023-03-19T14:54:00;17.20;56.50
2907;DHT22;1463;51.070;16.998;2023-03-19T14:56:34;17.10;56.80
2907;DHT22;1463;51.070;16.998;2023-03-19T14:59:02;17.10;56.40
2907;DHT22;1463;51.070;16.998;2023-03-19T15:01:32;17.10;56.40
2907;DHT22;1463;51.070;16.998;2023-03-19T15:04:07;17.30;56.20
2907;DHT22;1463;51.070;16.998;2023-03-19T15:06:38;17.50;55.80
2907;DHT22;1463;51.070;16.998;2023-03-19T15:09:13;17.60;55.40
2907;DHT22;1463;51.070;16.998;2023-03-19T15:11:55;17.30;55.40
2907;DHT22;1463;51.070;16.998;2023-03-19T15:14:37;17.20;56.30
2907;DHT22;1463;51.070;16.998;2023-03-19T15:17:14;17.10;56.70
2907;DHT22;1463;51.070;16.998;2023-03-19T15:19:44;17.10;57.20
2907;DHT22;1463;51.070;16.998;2023-03-19T15:22:18;17.10;57.20
2907;DHT22;1463;51.070;16.998;2023-03-19T15:24:47;17.10;57.30
2907;DHT22;1463;51.070;16.998;2023-03-19T15:27:19;17.10;58.50
2907;DHT22;1463;51.070;16.998;2023-03-19T15:29:50;17.10;58.30
2907;DHT22;1463;51.070;16.998;2023-03-19T15:32:31;17.20;57.90
2907;DHT22;1463;51.070;16.998;2023-03-19T15:34:59;17.10;57.70
2907;DHT22;1463;51.070;16.998;2023-03-19T15:37:31;17.20;58.10
2907;DHT22;1463;51.070;16.998;2023-03-19T15:40:02;17.30;58.20
2907;DHT22;1463;51.070;16.998;2023-03-19T15:42:34;17.20;58.00
2907;DHT22;1463;51.070;16.998;2023-03-19T15:45:06;17.10;58.10
2907;DHT22;1463;51.070;16.998;2023-03-19T15:47:38;17.10;57.90
2907;DHT22;1463;51.070;16.998;2023-03-19T15:50:10;17.00;58.10
2907;DHT22;1463;51.070;16.998;2023-03-19T15:52:42;17.00;57.60
2907;DHT22;1463;51.070;16.998;2023-03-19T15:55:13;17.00;57.80
2907;DHT22;1463;51.070;16.998;2023-03-19T15:57:42;17.20;57.30
2907;DHT22;1463;51.070;16.998;2023-03-19T16:00:13;17.20;59.10
2907;DHT22;1463;51.070;16.998;2023-03-19T16:02:42;17.10;60.20
2907;DHT22;1463;51.070;16.998;2023-03-19T16:05:22;17.00;60.70
2907;DHT22;1463;51.070;16.998;2023-03-19T16:08:20;17.00;61.10
2907;DHT22;1463;51.070;16.998;2023-03-19T16:11:12;16.90;61.40
2907;DHT22;1463;51.070;16.998;2023-03-19T16:13:44;16.80;61.80
2907;DHT22;1463;51.070;16.998;2023-03-19T16:16:18;16.70;62.10
2907;DHT22;1463;51.070;16.998;2023-03-19T16:18:50;16.60;62.20
2907;DHT22;1463;51.070;16.998;2023-03-19T16:21:19;16.60;62.30
2907;DHT22;1463;51.070;16.998;2023-03-19T16:23:56;16.60;62.60
2907;DHT22;1463;51.070;16.998;2023-03-19T16:26:30;16.60;62.80